Eastern Shore: Past 24 Hour Conditions

 

St. Anthony Airport

10:30 PM NDT 23 September 2017
Disclaimer

This table is a summary of hourly weather conditions for the past 24 hours.
Please note that these observations might not always be representative of weather conditions over their associated marine area.

Date / Time
(NDT)
Wind(knots) Conditions Visibility(km) Pressure(kPa) Air tempC) Relative humidity(%) Dew pointC)
23 September 2017
22:30 NW 24 gust 31 Mostly Cloudy 16 101.3 6 69 1
21:30 NW 21 gust 32 Cloudy 16 101.2 8 73 3
20:30 NW 22 gust 35 Cloudy 16 101.0 9 72 4
19:30 NW 19 gust 27 Cloudy 16 100.8 10 73 5
18:30 NW 27 gust 38 Cloudy 16 100.4 11 70 6
17:30 NW 23 gust 36 Cloudy 16 100.2 12 75 8
16:30 WNW 36 gust 42 Mostly Cloudy 16 99.7 14 72 9
15:30 WSW 23 gust 36 Light Rain 16 99.5 15 89 13
14:30 WSW 25 gust 38 Cloudy 16 99.5 16 86 14
13:30 SW 29 gust 40 Cloudy 16 99.5 15 90 13
12:30 SW 23 gust 35 Light Rain 6 99.7 14 92 12
11:30 SSE 11 Light Rain 10 99.9 11 95 11
10:30 SSW 10 Light Rain 16 100.2 13 82 10
9:30 SSW 14 gust 21 Cloudy 16 100.3 14 79 10
8:30 SSW 15 gust 24 Sunny 16 100.5 14 79 11
7:30 SW 17 gust 25 Sunny 16 100.7 13 87 11
6:30 SW 15 gust 20 Partly Cloudy 16 100.8 13 89 11
5:30 SW 14 gust 21 Mostly Cloudy 16 100.9 13 90 11
4:30 SW 11 gust 16 Clear 16 100.9 13 90 11
3:30 SW 12 Clear 16 101.1 13 91 11
2:30 WSW 13 Clear 16 101.2 13 89 11
1:30 WSW 15 gust 20 Mainly Clear 16 101.2 13 88 11
0:30 WSW 16 gust 23 Mainly Clear 16 101.2 13 88 11
22 September 2017
23:30 WSW 15 gust 23 Mainly Clear 16 101.2 13 87 11
22:30 W 14 gust 23 Mostly Cloudy 16 101.3 13 89 11

Zoom-in to make a selection

Map of Atlantic - Newfoundland marine weather areas Southwestern Grand Banks - 44138 Banquereau - 44139 Tail of the Bank - 44140 Nickerson Bank - 44251 Northeast Burgeo Bank - 44255 Blanc-Sablon Airport Cap Whittle Chevery Natashquan Airport Heath Point Miscou Island Grand Étang Ingonish Beach North Mountain St.Paul Island J.A. Douglas McCurdy Sydney Airport Charlottetown Airport East Point North Cape Argentia Bonavista Burgeo Cape Race Corner Brook Daniel's Harbour Englee Ferolle Point La Scie Port aux Basques Rocky Harbour Sagona Island St. Anthony Airport St. John's Int'l Airport St. Lawrence Stephenville Airport Twillingate Winterland Wreckhouse Cartwright Airport Mary's Harbour Grates Cove Pool's Island Marticot Island Long Pond Eskasoni (First Nations) Îles de la Madeleine Airport
Legend:
buoy Buoy
land station Land Station

Atlantic - Newfoundland Area

Another Region

What we are doing

Date modified: